createdAt,value
2023-02-28T00:01:29.627Z,4.80
2023-02-28T00:03:57.037Z,3.88
2023-02-28T00:06:25.256Z,4.78
2023-02-28T00:08:52.234Z,3.80
2023-02-28T00:11:19.348Z,4.28
2023-02-28T00:13:48.263Z,4.07
2023-02-28T00:16:20.567Z,3.97
2023-02-28T00:18:48.625Z,4.68
2023-02-28T00:21:17.345Z,3.55
2023-02-28T00:23:44.851Z,4.30
2023-02-28T00:26:11.920Z,4.20
2023-02-28T00:28:39.955Z,4.05
2023-02-28T00:31:07.009Z,4.55
2023-02-28T00:33:35.870Z,4.68
2023-02-28T00:36:08.105Z,4.20
2023-02-28T00:38:38.278Z,4.53
2023-02-28T00:41:06.074Z,4.03
2023-02-28T00:43:40.109Z,4.45
2023-02-28T00:46:08.403Z,3.83
2023-02-28T00:48:36.013Z,4.55
2023-02-28T00:51:04.085Z,3.97
2023-02-28T00:53:33.495Z,4.78
2023-02-28T00:56:01.043Z,4.18
2023-02-28T00:58:28.249Z,4.03
2023-02-28T01:00:55.409Z,4.78
2023-02-28T01:03:23.566Z,5.00
2023-02-28T01:05:51.067Z,4.30
2023-02-28T01:08:18.042Z,4.28
2023-02-28T01:10:45.051Z,4.50
2023-02-28T01:13:13.279Z,4.32
2023-02-28T01:15:49.896Z,4.13
2023-02-28T01:18:16.941Z,4.53
2023-02-28T01:20:44.155Z,4.60
2023-02-28T01:23:11.168Z,4.50
2023-02-28T01:25:38.851Z,4.18
2023-02-28T01:28:07.128Z,4.15
2023-02-28T01:30:35.081Z,3.97
2023-02-28T01:33:02.478Z,4.90
2023-02-28T01:35:29.400Z,4.18
2023-02-28T01:37:58.406Z,4.20
2023-02-28T01:40:28.296Z,4.70
2023-02-28T01:42:56.250Z,4.82
2023-02-28T01:45:41.417Z,4.63
2023-02-28T01:48:10.096Z,4.47
2023-02-28T01:50:44.085Z,5.07
2023-02-28T01:53:18.894Z,4.50
2023-02-28T01:55:50.796Z,4.57
2023-02-28T01:58:17.978Z,5.43
2023-02-28T02:00:45.263Z,5.20
2023-02-28T02:03:19.973Z,4.80
2023-02-28T02:05:48.649Z,5.25
2023-02-28T02:08:25.729Z,4.55
2023-02-28T02:11:02.686Z,5.40
2023-02-28T02:13:47.628Z,4.75
2023-02-28T02:16:20.285Z,4.83
2023-02-28T02:19:05.309Z,5.60
2023-02-28T02:21:50.995Z,4.32
2023-02-28T02:27:30.820Z,4.97
2023-02-28T02:30:38.301Z,4.28
2023-02-28T02:33:28.015Z,4.72
2023-02-28T02:36:33.919Z,4.25
2023-02-28T02:39:16.017Z,4.38
2023-02-28T02:41:57.119Z,4.90
2023-02-28T02:44:29.579Z,4.78
2023-02-28T02:47:10.678Z,4.97
2023-02-28T02:49:42.959Z,4.43
2023-02-28T02:52:15.371Z,4.95
2023-02-28T02:54:47.511Z,4.63
2023-02-28T02:57:41.419Z,5.00
2023-02-28T03:00:10.660Z,4.35
2023-02-28T03:02:40.049Z,5.97
2023-02-28T03:05:18.725Z,5.32
2023-02-28T03:07:45.712Z,5.30
2023-02-28T03:10:33.082Z,5.28
2023-02-28T03:14:00.801Z,5.47
2023-02-28T03:16:50.702Z,5.57
2023-02-28T03:19:54.725Z,5.82
2023-02-28T03:22:50.648Z,6.60
2023-02-28T03:25:28.785Z,5.88
2023-02-28T03:28:36.452Z,6.82
2023-02-28T03:31:24.487Z,6.25
2023-02-28T03:34:29.944Z,5.20
2023-02-28T03:37:06.815Z,5.03
2023-02-28T03:39:46.734Z,4.95
2023-02-28T03:42:20.762Z,5.22
2023-02-28T03:45:08.676Z,5.50
2023-02-28T03:47:41.589Z,5.68
2023-02-28T03:50:21.450Z,6.38
2023-02-28T03:53:07.624Z,5.05
2023-02-28T03:55:49.350Z,5.35
2023-02-28T03:58:44.931Z,5.85
2023-02-28T04:01:34.960Z,6.97
2023-02-28T04:04:03.318Z,6.03
2023-02-28T04:06:34.149Z,6.72
2023-02-28T04:09:02.661Z,6.70
2023-02-28T04:11:42.682Z,8.18
2023-02-28T04:14:12.376Z,7.90
2023-02-28T04:16:42.594Z,7.68
2023-02-28T04:19:12.340Z,8.20
2023-02-28T04:21:51.763Z,7.38
2023-02-28T04:24:27.510Z,8.68
2023-02-28T04:26:57.916Z,8.02
2023-02-28T04:29:28.960Z,7.85
2023-02-28T04:31:59.026Z,8.35
2023-02-28T04:34:28.099Z,8.35
2023-02-28T04:37:11.986Z,7.45
2023-02-28T04:39:40.707Z,7.72
2023-02-28T04:42:07.874Z,7.05
2023-02-28T04:44:34.997Z,8.90
2023-02-28T04:47:01.900Z,7.93
2023-02-28T04:49:28.879Z,7.53
2023-02-28T04:51:56.692Z,7.90
2023-02-28T04:54:23.606Z,7.78
2023-02-28T04:56:50.847Z,8.63
2023-02-28T04:59:18.635Z,9.32
2023-02-28T05:01:50.355Z,8.60
2023-02-28T05:04:18.121Z,8.57
2023-02-28T05:06:45.418Z,8.48
2023-02-28T05:09:12.654Z,8.88
2023-02-28T05:11:40.490Z,8.65
2023-02-28T05:14:16.683Z,8.52
2023-02-28T05:16:44.094Z,10.07
2023-02-28T05:19:11.393Z,8.05
2023-02-28T05:21:42.261Z,8.15
2023-02-28T05:24:13.039Z,9.13
2023-02-28T05:26:43.775Z,8.25
2023-02-28T05:29:11.607Z,9.70
2023-02-28T05:31:38.792Z,9.38
2023-02-28T05:34:06.099Z,9.00
2023-02-28T05:36:33.729Z,8.90
2023-02-28T05:39:00.707Z,10.38
2023-02-28T05:41:28.372Z,10.60
2023-02-28T05:43:55.820Z,9.48
2023-02-28T05:46:22.932Z,9.55
2023-02-28T05:48:51.705Z,10.35
2023-02-28T05:51:18.995Z,10.77
2023-02-28T05:53:46.506Z,10.57
2023-02-28T05:56:13.629Z,10.70
2023-02-28T05:58:40.733Z,10.75
2023-02-28T06:01:24.956Z,9.95
2023-02-28T06:03:52.395Z,10.57
2023-02-28T06:06:19.630Z,10.95
2023-02-28T06:08:46.747Z,10.80
2023-02-28T06:11:14.107Z,10.93
2023-02-28T06:13:41.142Z,12.05
2023-02-28T06:16:10.259Z,11.10
2023-02-28T06:18:37.483Z,10.90
2023-02-28T06:21:04.836Z,10.32
2023-02-28T06:23:31.960Z,10.35
2023-02-28T06:25:59.331Z,10.88
2023-02-28T06:28:27.112Z,11.32
2023-02-28T06:30:54.121Z,11.88
2023-02-28T06:33:21.851Z,11.05
2023-02-28T06:35:52.077Z,10.43
2023-02-28T06:38:19.806Z,10.88
2023-02-28T06:40:55.791Z,11.75
2023-02-28T06:43:23.509Z,10.55
2023-02-28T06:45:50.772Z,11.35
2023-02-28T06:48:18.940Z,11.63
2023-02-28T06:50:45.968Z,9.50
2023-02-28T06:53:36.990Z,10.43
2023-02-28T06:56:25.991Z,11.05
2023-02-28T06:58:57.399Z,10.68
2023-02-28T07:02:20.114Z,11.02
2023-02-28T07:04:50.848Z,11.05
2023-02-28T07:07:25.237Z,10.63
2023-02-28T07:09:57.871Z,10.20
2023-02-28T07:12:28.273Z,11.13
2023-02-28T07:14:58.813Z,11.60
2023-02-28T07:17:29.749Z,10.43
2023-02-28T07:19:57.101Z,17.35
2023-02-28T07:22:38.252Z,13.65
2023-02-28T07:25:10.858Z,10.95
2023-02-28T07:28:16.444Z,11.30
2023-02-28T07:30:47.844Z,12.05
2023-02-28T07:33:21.851Z,10.55
2023-02-28T07:36:26.246Z,11.40
2023-02-28T07:39:23.193Z,9.98
2023-02-28T07:42:22.630Z,9.93
2023-02-28T07:45:06.879Z,9.10
2023-02-28T07:47:44.353Z,9.95
2023-02-28T07:54:26.453Z,8.98
2023-02-28T07:54:41.728Z,9.68
2023-02-28T08:00:33.483Z,8.73
2023-02-28T08:03:04.085Z,8.20
2023-02-28T08:05:45.829Z,9.57
2023-02-28T08:08:16.744Z,9.18
2023-02-28T08:10:51.777Z,9.00
2023-02-28T08:13:24.703Z,9.23
2023-02-28T08:15:52.258Z,8.32
2023-02-28T08:18:23.693Z,9.00
2023-02-28T08:20:58.689Z,8.05
2023-02-28T08:23:29.928Z,8.95
2023-02-28T08:26:20.138Z,8.77
2023-02-28T08:28:47.828Z,8.70
2023-02-28T08:31:23.568Z,8.15
2023-02-28T08:34:01.377Z,9.85
2023-02-28T08:36:30.343Z,8.23
2023-02-28T08:39:02.237Z,8.90
2023-02-28T08:41:33.240Z,8.27
2023-02-28T08:44:17.407Z,8.77
2023-02-28T08:46:48.205Z,8.98
2023-02-28T08:49:22.520Z,8.88
2023-02-28T08:52:35.903Z,8.68
2023-02-28T08:55:16.208Z,8.98
2023-02-28T08:57:50.704Z,7.93
2023-02-28T09:03:47.432Z,8.27
2023-02-28T09:06:39.669Z,7.65
2023-02-28T09:09:10.689Z,7.47
2023-02-28T09:11:38.466Z,7.18
2023-02-28T09:14:05.528Z,7.50
2023-02-28T09:16:34.510Z,6.88
2023-02-28T09:19:02.528Z,7.60
2023-02-28T09:21:30.278Z,7.32
2023-02-28T09:24:00.469Z,7.90
2023-02-28T09:26:38.960Z,6.25
2023-02-28T09:29:27.486Z,6.65
2023-02-28T09:32:20.382Z,6.45
2023-02-28T09:34:47.852Z,6.03
2023-02-28T09:37:33.824Z,6.20
2023-02-28T09:40:01.172Z,6.55
2023-02-28T09:42:34.793Z,6.35
2023-02-28T09:45:11.738Z,6.18
2023-02-28T09:47:45.909Z,6.28
2023-02-28T09:50:27.938Z,6.57
2023-02-28T09:52:56.700Z,6.50
2023-02-28T09:55:47.106Z,5.07
2023-02-28T09:59:01.497Z,5.78
2023-02-28T10:01:55.376Z,6.30
2023-02-28T10:04:52.349Z,6.03
2023-02-28T10:08:14.685Z,6.78
2023-02-28T10:10:54.375Z,6.97
2023-02-28T10:13:46.734Z,6.30
2023-02-28T10:16:37.133Z,7.05
2023-02-28T10:19:23.183Z,6.93
2023-02-28T10:22:28.462Z,6.57
2023-02-28T10:25:02.183Z,7.05
2023-02-28T10:27:36.302Z,7.90
2023-02-28T10:30:04.489Z,7.50
2023-02-28T10:32:36.565Z,7.07
2023-02-28T10:35:21.670Z,7.07
2023-02-28T10:37:54.888Z,7.22
2023-02-28T10:40:21.771Z,7.55
2023-02-28T10:43:04.850Z,6.93
2023-02-28T10:45:38.172Z,7.10
2023-02-28T10:48:46.008Z,7.07
2023-02-28T10:51:16.883Z,7.72
2023-02-28T10:54:02.956Z,7.15
2023-02-28T10:56:32.223Z,7.22
2023-02-28T10:59:23.882Z,7.55
2023-02-28T11:01:53.819Z,7.95
2023-02-28T11:04:23.604Z,7.85
2023-02-28T11:07:04.782Z,7.88
2023-02-28T11:09:39.563Z,7.93
2023-02-28T11:12:24.418Z,8.23
2023-02-28T11:15:07.779Z,7.90
2023-02-28T11:17:35.012Z,7.93
2023-02-28T11:20:21.261Z,7.80
2023-02-28T11:22:49.165Z,8.43
2023-02-28T11:25:38.790Z,7.30
2023-02-28T11:28:28.759Z,7.60
2023-02-28T11:31:12.865Z,7.50
2023-02-28T11:33:56.958Z,7.57
2023-02-28T11:36:29.086Z,6.75
2023-02-28T11:39:04.650Z,7.28
2023-02-28T11:41:59.387Z,7.68
2023-02-28T11:45:08.632Z,8.30
2023-02-28T11:47:51.627Z,7.88
2023-02-28T11:50:39.222Z,8.40
2023-02-28T11:53:30.300Z,8.38
2023-02-28T11:56:15.062Z,7.90
2023-02-28T11:59:36.129Z,7.80
2023-02-28T12:02:39.166Z,8.82
2023-02-28T12:06:09.135Z,8.73
2023-02-28T12:08:57.712Z,8.10
2023-02-28T12:11:48.272Z,8.13
2023-02-28T12:14:46.233Z,8.30
2023-02-28T12:17:38.891Z,7.93
2023-02-28T12:20:58.803Z,8.73
2023-02-28T12:23:50.607Z,8.48
2023-02-28T12:26:37.901Z,8.10
2023-02-28T12:29:52.281Z,8.90
2023-02-28T12:32:35.084Z,8.20
2023-02-28T12:35:10.975Z,8.90
2023-02-28T12:37:47.171Z,8.75
2023-02-28T12:40:23.931Z,7.78
2023-02-28T12:42:56.051Z,8.55
2023-02-28T12:45:49.623Z,8.65
2023-02-28T12:48:26.772Z,7.47
2023-02-28T12:50:54.487Z,9.98
2023-02-28T12:53:48.107Z,8.93
2023-02-28T12:56:31.030Z,8.98
2023-02-28T12:59:04.576Z,9.05
2023-02-28T13:02:03.541Z,8.52
2023-02-28T13:04:56.476Z,9.57
2023-02-28T13:07:38.122Z,8.73
2023-02-28T13:10:08.539Z,9.52
2023-02-28T13:12:37.032Z,9.90
2023-02-28T13:15:26.294Z,9.38
2023-02-28T13:17:57.419Z,8.35
2023-02-28T13:20:38.310Z,8.68
2023-02-28T13:23:47.950Z,8.50
2023-02-28T13:26:14.908Z,9.85
2023-02-28T13:29:10.927Z,9.20
2023-02-28T13:34:50.840Z,9.68
2023-02-28T13:37:26.521Z,9.80
2023-02-28T13:40:00.364Z,10.20
2023-02-28T13:42:50.708Z,9.48
2023-02-28T13:45:27.040Z,10.90
2023-02-28T13:48:03.789Z,10.23
2023-02-28T13:50:42.101Z,10.18
2023-02-28T13:53:14.908Z,8.88
2023-02-28T13:56:06.592Z,9.48
2023-02-28T13:58:46.938Z,9.65
2023-02-28T14:02:03.966Z,9.85
2023-02-28T14:05:06.935Z,9.30
2023-02-28T14:07:51.728Z,8.80
2023-02-28T14:10:33.811Z,9.13
2023-02-28T14:13:38.361Z,9.07
2023-02-28T14:16:08.637Z,9.40
2023-02-28T14:18:40.336Z,9.85
2023-02-28T14:21:35.065Z,10.27
2023-02-28T14:24:32.658Z,10.52
2023-02-28T14:27:17.434Z,10.13
2023-02-28T14:30:58.426Z,9.70
2023-02-28T14:33:34.944Z,9.80
2023-02-28T14:36:08.136Z,9.70
2023-02-28T14:38:49.169Z,9.68
2023-02-28T14:41:30.005Z,10.20
2023-02-28T14:44:00.603Z,9.02
2023-02-28T14:46:40.520Z,10.38
2023-02-28T14:49:17.083Z,10.73
2023-02-28T14:51:45.930Z,9.15
2023-02-28T14:54:20.970Z,9.20
2023-02-28T14:56:51.636Z,10.50
2023-02-28T14:59:36.603Z,9.45
2023-02-28T15:02:15.763Z,9.70
2023-02-28T15:04:43.389Z,10.23
2023-02-28T15:07:15.553Z,10.52
2023-02-28T15:09:42.614Z,10.30
2023-02-28T15:12:16.056Z,9.95
2023-02-28T15:14:45.306Z,9.63
2023-02-28T15:17:25.983Z,9.85
2023-02-28T15:19:57.168Z,13.73
2023-02-28T15:22:36.901Z,11.75
2023-02-28T15:25:07.047Z,10.05
2023-02-28T15:27:39.439Z,9.98
2023-02-28T15:30:16.225Z,10.77
2023-02-28T15:32:43.647Z,10.38
2023-02-28T15:35:28.133Z,10.07
2023-02-28T15:38:27.903Z,10.48
2023-02-28T15:40:59.727Z,9.88
2023-02-28T15:43:35.746Z,9.30
2023-02-28T15:46:16.849Z,11.88
2023-02-28T15:48:48.923Z,10.27
2023-02-28T15:51:24.749Z,9.32
2023-02-28T15:54:08.612Z,9.40
2023-02-28T15:56:45.979Z,10.20
2023-02-28T15:59:24.391Z,9.65
2023-02-28T16:02:15.342Z,10.32
2023-02-28T16:05:11.893Z,11.27
2023-02-28T16:07:43.699Z,10.10
2023-02-28T16:10:15.216Z,11.05
2023-02-28T16:12:42.929Z,10.00
2023-02-28T16:15:24.003Z,10.07
2023-02-28T16:17:51.203Z,9.05
2023-02-28T16:20:25.712Z,10.02
2023-02-28T16:22:53.298Z,9.05
2023-02-28T16:25:27.392Z,9.48
2023-02-28T16:27:58.473Z,11.05
2023-02-28T16:30:32.333Z,9.85
2023-02-28T16:33:00.183Z,9.95
2023-02-28T16:35:27.170Z,9.30
2023-02-28T16:37:55.132Z,10.00
2023-02-28T16:40:26.990Z,8.23
2023-02-28T16:43:00.757Z,8.18
2023-02-28T16:45:30.352Z,8.43
2023-02-28T16:47:57.810Z,8.48
2023-02-28T16:50:28.401Z,9.25
2023-02-28T16:52:55.695Z,8.15
2023-02-28T16:55:26.542Z,8.82
2023-02-28T16:57:59.854Z,10.43
2023-02-28T17:00:29.308Z,11.13
2023-02-28T17:02:57.513Z,9.60
2023-02-28T17:05:24.862Z,11.63
2023-02-28T17:07:52.005Z,10.70
2023-02-28T17:10:23.232Z,9.77
2023-02-28T17:12:55.018Z,9.00
2023-02-28T17:15:23.667Z,10.15
2023-02-28T17:17:54.382Z,9.23
2023-02-28T17:20:23.602Z,9.27
2023-02-28T17:22:55.389Z,9.18
2023-02-28T17:25:23.513Z,8.73
2023-02-28T17:27:52.350Z,9.15
2023-02-28T17:30:24.128Z,8.75
2023-02-28T17:32:51.718Z,9.32
2023-02-28T17:35:18.780Z,8.73
2023-02-28T17:37:46.338Z,9.77
2023-02-28T17:40:21.148Z,9.48
2023-02-28T17:42:48.501Z,8.65
2023-02-28T17:45:16.596Z,8.18
2023-02-28T17:47:48.736Z,8.85
2023-02-28T17:50:19.999Z,9.70
2023-02-28T17:52:47.201Z,10.27
2023-02-28T17:55:14.864Z,9.43
2023-02-28T17:57:42.891Z,8.80
2023-02-28T18:00:14.806Z,8.82
2023-02-28T18:02:43.145Z,9.45
2023-02-28T18:05:11.156Z,8.95
2023-02-28T18:07:39.318Z,9.05
2023-02-28T18:10:13.957Z,9.82
2023-02-28T18:12:40.876Z,8.27
2023-02-28T18:15:08.457Z,10.00
2023-02-28T18:17:35.350Z,8.65
2023-02-28T18:20:02.343Z,9.57
2023-02-28T18:22:29.242Z,10.13
2023-02-28T18:24:56.216Z,10.18
2023-02-28T18:27:23.279Z,9.77
2023-02-28T18:29:52.399Z,9.02
2023-02-28T18:32:19.342Z,9.48
2023-02-28T18:34:46.219Z,9.48
2023-02-28T18:37:13.140Z,10.07
2023-02-28T18:39:40.544Z,9.80
2023-02-28T18:42:08.838Z,10.70
2023-02-28T18:44:37.960Z,9.90
2023-02-28T18:47:05.098Z,9.70
2023-02-28T18:49:35.472Z,10.63
2023-02-28T18:52:03.120Z,9.68
2023-02-28T18:54:30.276Z,9.98
2023-02-28T18:56:57.250Z,9.52
2023-02-28T18:59:24.200Z,10.07
2023-02-28T19:01:51.167Z,10.68
2023-02-28T19:04:18.195Z,10.00
2023-02-28T19:06:45.382Z,10.88
2023-02-28T19:09:12.476Z,10.70
2023-02-28T19:11:40.249Z,10.75
2023-02-28T19:14:09.427Z,10.55
2023-02-28T19:16:36.691Z,10.80
2023-02-28T19:19:04.163Z,11.20
2023-02-28T19:21:31.823Z,10.52
2023-02-28T19:23:58.789Z,11.13
2023-02-28T19:26:27.093Z,10.88
2023-02-28T19:28:54.143Z,11.95
2023-02-28T19:31:26.708Z,10.63
2023-02-28T19:33:54.172Z,12.35
2023-02-28T19:36:22.198Z,9.75
2023-02-28T19:38:50.206Z,10.00
2023-02-28T19:41:18.790Z,10.38
2023-02-28T19:43:46.846Z,11.82
2023-02-28T19:46:14.730Z,12.52
2023-02-28T19:48:47.441Z,11.85
2023-02-28T19:53:48.367Z,12.30
2023-02-28T19:56:15.494Z,13.55
2023-02-28T19:58:45.672Z,11.90
2023-02-28T20:01:17.786Z,13.05
2023-02-28T20:03:51.177Z,12.25
2023-02-28T20:06:18.604Z,11.57
2023-02-28T20:08:46.240Z,10.57
2023-02-28T20:11:16.622Z,11.55
2023-02-28T20:13:45.317Z,10.32
2023-02-28T20:16:15.388Z,11.73
2023-02-28T20:18:44.596Z,9.80
2023-02-28T20:21:13.382Z,10.43
2023-02-28T20:23:43.151Z,9.73
2023-02-28T20:26:11.560Z,11.25
2023-02-28T20:28:39.937Z,12.70
2023-02-28T20:31:15.918Z,11.77
2023-02-28T20:33:46.678Z,11.88
2023-02-28T20:36:15.674Z,12.18
2023-02-28T20:38:43.411Z,11.45
2023-02-28T20:41:10.515Z,11.60
2023-02-28T20:43:37.758Z,11.35
2023-02-28T20:46:05.345Z,11.93
2023-02-28T20:48:35.700Z,13.13
2023-02-28T20:51:05.096Z,11.77
2023-02-28T20:53:34.676Z,12.70
2023-02-28T20:56:16.203Z,12.18
2023-02-28T20:58:47.253Z,12.10
2023-02-28T21:01:27.261Z,13.68
2023-02-28T21:03:58.582Z,13.52
2023-02-28T21:06:30.609Z,14.00
2023-02-28T21:08:58.988Z,13.80
2023-02-28T21:11:29.949Z,14.60
2023-02-28T21:14:01.544Z,16.40
2023-02-28T21:16:31.997Z,14.30
2023-02-28T21:19:05.438Z,15.98
2023-02-28T21:21:36.447Z,15.57
2023-02-28T21:24:03.528Z,14.13
2023-02-28T21:26:30.864Z,15.63
2023-02-28T21:29:01.751Z,16.42
2023-02-28T21:31:32.991Z,14.98
2023-02-28T21:34:02.637Z,15.35
2023-02-28T21:36:33.219Z,15.00
2023-02-28T21:39:08.883Z,14.88
2023-02-28T21:41:36.521Z,14.23
2023-02-28T21:44:03.995Z,15.02
2023-02-28T21:46:31.740Z,14.93
2023-02-28T21:49:00.312Z,14.52
2023-02-28T21:51:31.254Z,13.85
2023-02-28T21:54:02.178Z,12.95
2023-02-28T21:56:33.086Z,14.45
2023-02-28T21:59:01.238Z,14.88
2023-02-28T22:01:41.559Z,14.48
2023-02-28T22:04:11.448Z,13.95
2023-02-28T22:06:41.181Z,15.43
2023-02-28T22:09:10.468Z,17.13
2023-02-28T22:11:39.144Z,17.05
2023-02-28T22:14:10.201Z,15.35
2023-02-28T22:16:50.593Z,15.75
2023-02-28T22:19:20.138Z,14.55
2023-02-28T22:21:47.602Z,15.52
2023-02-28T22:24:17.586Z,15.93
2023-02-28T22:26:44.953Z,15.57
2023-02-28T22:29:12.023Z,16.33
2023-02-28T22:31:38.956Z,15.90
2023-02-28T22:34:11.479Z,14.38
2023-02-28T22:36:43.652Z,16.42
2023-02-28T22:39:11.548Z,15.65
2023-02-28T22:41:39.261Z,14.80
2023-02-28T22:44:07.243Z,16.27
2023-02-28T22:46:36.097Z,15.48
2023-02-28T22:49:05.411Z,15.88
2023-02-28T22:51:33.368Z,16.13
2023-02-28T22:54:00.565Z,14.23
2023-02-28T22:56:30.071Z,16.90
2023-02-28T22:58:59.481Z,15.38
2023-02-28T23:01:30.603Z,16.80
2023-02-28T23:03:58.548Z,16.52
2023-02-28T23:06:37.984Z,18.67
2023-02-28T23:09:10.582Z,20.20
2023-02-28T23:11:45.879Z,18.73
2023-02-28T23:16:48.858Z,19.38
2023-02-28T23:19:32.209Z,26.23
2023-02-28T23:22:00.907Z,27.77
2023-02-28T23:24:32.493Z,28.98
2023-02-28T23:27:04.806Z,22.45
2023-02-28T23:29:33.994Z,22.92
2023-02-28T23:32:01.431Z,21.38
2023-02-28T23:34:30.292Z,22.27
2023-02-28T23:36:59.953Z,23.60
2023-02-28T23:39:28.670Z,23.15
2023-02-28T23:41:56.450Z,22.40
2023-02-28T23:44:24.306Z,19.58
2023-02-28T23:46:53.555Z,18.45
2023-02-28T23:49:21.910Z,18.92
2023-02-28T23:51:51.867Z,19.65
2023-02-28T23:54:19.365Z,19.65
2023-02-28T23:56:47.006Z,17.90
2023-02-28T23:59:14.087Z,16.45
